To NAV CANADA Home Page Login to a new session Search on AWWS site Feedback and Comments Disclaimer Vers la page française équivalente Tips FAQ What's new on the site To the Forecasts and Observations / NOTAM section To "File a Flight Plan" website Publications and other links Update of the User's profile FIC Telephone Numbers My Weather Data Folder Route Weather Data Regional Weather Data Local Weather Data To the Forecasts and Observations / NOTAM section
Request Generated 02/27/2017 at 09:25:51 UTC . Weather information available at that time is displayed.

METAR/TAF

GREENWOOD/NS    

METAR CYZX 270900Z 28009KT 15SM SKC M04/M06 A3013 RMK WNDY HILL UNAVBL SLP203=
METAR CYZX 270800Z 29011G16KT 15SM FEW038 M04/M06 A3008 RMK SC1 WNDY HILL UNAVBL SLP188=
METAR CYZX 270700Z 29011G16KT 15SM FEW038 M03/M06 A3005 RMK SC1 WNDY HILL UNAVBL SLP179=

TAF CYZX 270530Z 2706/2806 28015G25KT P6SM SCT040 TEMPO 2706/2710
BKN040
FM271000 22008KT P6SM FEW030 SCT120
FM271400 22015G25KT P6SM BKN030 TEMPO 2716/2720 P6SM -SHRASN
BECMG 2716/2718 22020G30KT
FM272000 24020G30KT P6SM SCT040
FM280000 27015G25KT P6SM BKN060
BECMG 2804/2806 30010KT
RMK NXT FCST BY 271200Z=
Your time UTC time
Weather data provided by Environment Canada and NAV CANADA